Time;durP1;ratioP1;P1;durP2;ratioP2;P2;SDS_P1;SDS_P2;PMS_P1;PMS_P2;Temp;Humidity;BMP_temperature;BMP_pressure;BME280_temperature;BME280_humidity;BME280_pressure;Samples;Min_cycle;Max_cycle;Signal;HPM_P1;HPM_P2
2021/05/15 00:00:37;;;;;;;2.97;1.70;;;;;;;10.87;72.02;99629.38;5103533;28;20127;-49
2021/05/15 00:03:03;;;;;;;5.95;1.65;;;;;;;10.92;71.99;99640.09;5103460;28;20044;-50
2021/05/15 00:05:29;;;;;;;9.20;1.48;;;;;;;10.95;71.82;99628.28;5095163;28;20051;-47
2021/05/15 00:07:55;;;;;;;4.93;1.50;;;;;;;10.97;71.91;99620.41;5105486;28;20412;-50
2021/05/15 00:10:21;;;;;;;6.13;1.30;;;;;;;10.99;71.76;99623.59;5099863;28;20023;-50
2021/05/15 00:12:48;;;;;;;4.53;1.80;;;;;;;11.02;71.68;99614.53;5103622;28;20065;-48
2021/05/15 00:15:14;;;;;;;6.60;1.65;;;;;;;11.06;71.90;99609.03;5097831;28;20553;-49
2021/05/15 00:17:40;;;;;;;7.63;2.08;;;;;;;11.11;71.80;99592.09;5091606;28;20052;-52
2021/05/15 00:20:12;;;;;;;3.60;1.67;;;;;;;11.14;72.15;99586.59;5075651;28;20044;-52
2021/05/15 00:22:43;;;;;;;3.53;1.80;;;;;;;11.16;72.18;99567.63;5079352;28;20035;-52
2021/05/15 00:25:11;;;;;;;4.28;2.03;;;;;;;11.26;71.88;99566.94;5105854;28;20032;-51
2021/05/15 00:27:37;;;;;;;5.25;1.30;;;;;;;11.27;71.86;99574.09;5101290;28;20040;-49
2021/05/15 00:30:07;;;;;;;2.85;1.17;;;;;;;11.29;71.83;99571.75;5099407;28;20039;-51
2021/05/15 00:32:33;;;;;;;4.25;1.40;;;;;;;11.30;71.80;99569.78;5091697;28;20067;-49
2021/05/15 00:34:58;;;;;;;5.00;1.52;;;;;;;11.30;71.79;99565.03;5091296;28;20524;-52
2021/05/15 00:37:24;;;;;;;3.60;1.30;;;;;;;11.29;71.92;99557.09;5092279;28;20048;-49
2021/05/15 00:39:49;;;;;;;3.33;1.50;;;;;;;11.26;71.96;99550.31;5092193;28;20043;-50
2021/05/15 00:42:15;;;;;;;3.60;2.08;;;;;;;11.20;71.99;99542.75;5072258;28;20437;-52
2021/05/15 00:44:46;;;;;;;5.38;1.70;;;;;;;11.16;72.09;99542.69;5112067;28;20027;-49
2021/05/15 00:47:16;;;;;;;9.40;1.80;;;;;;;11.17;72.36;99543.50;5106284;28;20491;-48
2021/05/15 00:49:44;;;;;;;8.88;1.85;;;;;;;11.18;72.47;99539.53;5107420;28;20677;-47
2021/05/15 00:52:10;;;;;;;3.95;1.80;;;;;;;11.19;72.50;99550.25;5097781;28;20170;-47
2021/05/15 00:54:37;;;;;;;6.40;1.80;;;;;;;11.14;72.73;99542.28;5091550;28;20040;-47
2021/05/15 00:57:04;;;;;;;4.28;1.77;;;;;;;11.13;72.87;99540.69;5092668;28;20469;-48
2021/05/15 00:59:30;;;;;;;4.78;1.98;;;;;;;11.12;73.09;99533.53;5107592;28;20120;-47
2021/05/15 01:01:56;;;;;;;7.22;2.65;;;;;;;11.09;73.26;99537.09;5109669;28;20050;-46
2021/05/15 01:04:22;;;;;;;3.03;1.73;;;;;;;11.04;73.89;99540.16;5087006;28;20119;-46
2021/05/15 01:06:48;;;;;;;5.53;2.03;;;;;;;11.01;73.93;99533.41;5098004;28;20066;-47
2021/05/15 01:09:14;;;;;;;6.35;2.60;;;;;;;11.00;74.45;99533.78;5095090;28;20465;-47
2021/05/15 01:11:40;;;;;;;3.97;2.00;;;;;;;10.91;74.76;99524.97;5091253;28;20043;-46
2021/05/15 01:14:05;;;;;;;4.13;1.38;;;;;;;10.81;75.12;99528.41;5101239;28;20044;-48
2021/05/15 01:16:32;;;;;;;5.13;1.60;;;;;;;10.73;75.46;99521.19;5098156;28;20032;-48
2021/05/15 01:18:58;;;;;;;5.57;1.90;;;;;;;10.67;75.47;99517.94;5093153;28;20044;-47
2021/05/15 01:21:24;;;;;;;6.18;1.60;;;;;;;10.65;75.70;99514.75;5058104;28;20033;-48
2021/05/15 01:23:51;;;;;;;3.63;1.40;;;;;;;10.61;75.85;99518.66;5105230;28;20042;-50
2021/05/15 01:26:22;;;;;;;7.47;1.75;;;;;;;10.53;76.94;99512.25;5105580;28;20401;-47
2021/05/15 01:28:54;;;;;;;6.75;2.63;;;;;;;10.49;76.37;99511.38;5091205;28;20044;-50
2021/05/15 01:31:21;;;;;;;6.68;1.65;;;;;;;10.46;76.62;99503.06;5090831;28;20381;-47
2021/05/15 01:33:47;;;;;;;6.82;2.00;;;;;;;10.38;76.56;99494.63;5091812;28;20028;-49
2021/05/15 01:36:13;;;;;;;5.82;1.35;;;;;;;10.41;76.42;99501.38;5105036;28;20488;-47
2021/05/15 01:38:39;;;;;;;5.88;1.90;;;;;;;10.43;76.55;99501.03;5086561;28;20028;-47
2021/05/15 01:41:08;;;;;;;6.15;1.75;;;;;;;10.42;76.58;99491.91;5099816;28;20031;-47
2021/05/15 01:43:34;;;;;;;7.25;1.90;;;;;;;10.46;76.54;99494.75;5108673;28;21902;-47
2021/05/15 01:46:01;;;;;;;2.83;1.63;;;;;;;10.45;76.45;99488.41;5100034;28;20032;-51
2021/05/15 01:48:26;;;;;;;3.08;1.25;;;;;;;10.43;76.72;99484.41;5093657;28;20135;-54
2021/05/15 01:50:59;;;;;;;6.32;1.38;;;;;;;10.33;76.88;99489.41;5098885;28;20136;-53
2021/05/15 01:53:27;;;;;;;4.47;1.33;;;;;;;10.34;76.59;99487.47;5098518;28;20047;-53
2021/05/15 01:55:53;;;;;;;1.98;1.30;;;;;;;10.32;76.71;99490.63;5085833;28;20055;-52
2021/05/15 01:58:19;;;;;;;5.07;1.02;;;;;;;10.32;76.73;99487.84;5092475;28;20477;-50
2021/05/15 02:00:44;;;;;;;2.08;0.90;;;;;;;10.25;76.55;99484.97;5091623;28;20032;-55
2021/05/15 02:03:10;;;;;;;1.83;0.68;;;;;;;10.20;76.36;99485.28;5092692;28;20071;-50
2021/05/15 02:05:36;;;;;;;1.38;0.50;;;;;;;10.21;76.05;99478.59;5109476;28;20527;-51
2021/05/15 02:08:02;;;;;;;3.30;0.80;;;;;;;10.15;75.80;99476.50;5100497;28;20036;-54
2021/05/15 02:10:27;;;;;;;3.03;0.80;;;;;;;10.15;75.71;99480.06;5109418;28;20031;-51
2021/05/15 02:12:53;;;;;;;2.08;0.88;;;;;;;10.15;75.58;99465.44;5091012;28;20027;-48
2021/05/15 02:15:19;;;;;;;1.70;0.63;;;;;;;10.09;75.59;99464.94;5110133;28;20042;-51
2021/05/15 02:17:45;;;;;;;2.25;0.60;;;;;;;10.08;75.60;99463.38;5113073;28;20043;-54
2021/05/15 02:20:11;;;;;;;1.65;0.77;;;;;;;10.11;75.54;99467.34;5093498;28;20100;-50
2021/05/15 02:22:36;;;;;;;2.72;0.82;;;;;;;10.10;75.35;99455.47;5094247;28;20035;-48
2021/05/15 02:25:03;;;;;;;2.42;0.98;;;;;;;10.12;75.23;99453.16;5096022;28;20032;-49
2021/05/15 02:27:28;;;;;;;2.05;0.55;;;;;;;10.14;75.11;99444.50;5094842;28;20106;-48
2021/05/15 02:29:56;;;;;;;1.83;0.50;;;;;;;10.09;74.98;99442.00;5073846;28;20036;-54
2021/05/15 02:32:22;;;;;;;1.40;0.60;;;;;;;10.08;75.33;99435.72;5095149;28;20024;-53
2021/05/15 02:34:48;;;;;;;2.65;0.70;;;;;;;10.08;74.94;99438.47;5106972;28;20034;-50
2021/05/15 02:37:14;;;;;;;1.55;0.90;;;;;;;10.02;74.80;99431.66;5108513;28;20024;-49
2021/05/15 02:39:42;;;;;;;0.90;0.60;;;;;;;10.01;74.92;99440.31;5095450;28;20048;-53
2021/05/15 02:42:08;;;;;;;1.75;0.50;;;;;;;9.98;74.74;99433.56;5108990;28;20370;-54
2021/05/15 02:44:33;;;;;;;1.08;0.30;;;;;;;9.92;74.68;99424.03;5102298;28;20042;-53
2021/05/15 02:46:59;;;;;;;1.75;0.38;;;;;;;9.90;74.63;99423.56;5110423;28;20046;-54
2021/05/15 02:49:25;;;;;;;0.43;0.28;;;;;;;9.87;74.46;99418.81;5110458;28;20036;-50
2021/05/15 02:51:50;;;;;;;0.88;0.57;;;;;;;9.86;74.46;99417.19;5099552;28;20035;-51
2021/05/15 02:54:16;;;;;;;1.95;0.45;;;;;;;9.91;74.35;99414.13;5095278;28;20416;-51
2021/05/15 02:56:41;;;;;;;0.68;0.30;;;;;;;9.93;74.47;99406.25;5093066;28;20078;-49
2021/05/15 02:59:07;;;;;;;0.73;0.30;;;;;;;9.95;74.55;99403.94;5093117;28;20078;-53
2021/05/15 03:01:32;;;;;;;0.30;0.30;;;;;;;10.00;74.50;99405.56;5077039;28;20089;-51
2021/05/15 03:03:58;;;;;;;0.75;0.30;;;;;;;10.04;74.48;99398.91;5086559;28;20042;-52
2021/05/15 03:06:23;;;;;;;1.17;0.30;;;;;;;10.06;74.51;99388.25;5103974;28;20044;-53
2021/05/15 03:08:51;;;;;;;0.60;0.30;;;;;;;10.03;74.71;99389.03;5096436;28;20028;-53
2021/05/15 03:11:16;;;;;;;1.00;0.30;;;;;;;10.06;74.84;99387.47;5111654;28;20031;-53
2021/05/15 03:13:42;;;;;;;2.05;0.38;;;;;;;10.09;74.85;99387.50;5100448;28;20105;-52
2021/05/15 03:16:08;;;;;;;1.52;0.60;;;;;;;10.08;74.82;99385.94;5099408;28;20031;-54
2021/05/15 03:18:33;;;;;;;2.10;0.30;;;;;;;10.10;74.77;99389.13;5088978;28;20501;-52
2021/05/15 03:20:59;;;;;;;0.60;0.25;;;;;;;10.13;74.78;99388.41;5092118;28;20038;-51
2021/05/15 03:23:25;;;;;;;0.32;0.20;;;;;;;10.14;74.60;99372.59;5085082;28;20028;-52
2021/05/15 03:25:50;;;;;;;0.32;0.20;;;;;;;10.14;74.50;99367.84;5092539;28;20054;-52
2021/05/15 03:28:16;;;;;;;1.40;0.35;;;;;;;10.08;74.62;99368.53;5097474;28;20032;-52
2021/05/15 03:30:41;;;;;;;1.00;0.20;;;;;;;10.03;74.71;99360.56;5111768;28;20028;-49
2021/05/15 03:33:08;;;;;;;0.63;0.30;;;;;;;10.03;74.75;99358.63;5111331;28;20039;-52
2021/05/15 03:35:34;;;;;;;1.00;0.30;;;;;;;9.96;74.75;99355.72;5090246;28;20031;-48
2021/05/15 03:37:59;;;;;;;0.57;0.43;;;;;;;9.90;74.90;99360.00;5104973;28;20135;-49
2021/05/15 03:40:27;;;;;;;1.08;0.47;;;;;;;9.88;74.88;99354.03;5094465;28;20039;-52
2021/05/15 03:42:56;;;;;;;2.67;0.30;;;;;;;9.85;74.69;99354.78;5108916;28;20039;-47
2021/05/15 03:45:22;;;;;;;0.60;0.20;;;;;;;9.84;74.84;99353.22;5099883;28;20036;-51
2021/05/15 03:47:49;;;;;;;0.43;0.30;;;;;;;9.76;75.10;99346.00;5108310;28;20040;-50
2021/05/15 03:50:15;;;;;;;3.88;0.30;;;;;;;9.72;75.19;99353.41;5101726;28;20576;-48
2021/05/15 03:52:41;;;;;;;1.25;0.40;;;;;;;9.67;75.32;99346.25;5087244;28;20088;-54
2021/05/15 03:55:10;;;;;;;3.40;0.47;;;;;;;9.67;75.38;99354.53;5093625;28;20028;-51
2021/05/15 03:57:36;;;;;;;0.77;0.50;;;;;;;9.69;75.57;99345.88;5099315;28;20031;-50
2021/05/15 04:00:03;;;;;;;2.47;0.40;;;;;;;9.69;75.44;99340.34;5107106;28;20061;-47
2021/05/15 04:02:28;;;;;;;0.40;0.30;;;;;;;9.65;75.49;99345.03;5104601;28;20046;-48
2021/05/15 04:04:57;;;;;;;3.20;0.75;;;;;;;9.63;75.49;99336.34;5101699;28;20047;-48
2021/05/15 04:07:23;;;;;;;1.00;0.43;;;;;;;9.60;75.60;99331.53;5103647;28;20484;-48
2021/05/15 04:09:48;;;;;;;2.40;0.30;;;;;;;9.57;75.54;99329.53;5076487;28;20036;-48
2021/05/15 04:12:16;;;;;;;2.28;0.40;;;;;;;9.55;75.69;99329.09;5099594;28;20070;-49
2021/05/15 04:14:46;;;;;;;0.35;0.30;;;;;;;9.50;75.93;99326.66;5101973;28;20077;-46
2021/05/15 04:17:18;;;;;;;1.33;0.43;;;;;;;9.51;75.66;99315.22;5090164;28;20042;-49
2021/05/15 04:19:44;;;;;;;3.70;0.40;;;;;;;9.47;76.09;99322.69;5099140;28;20029;-50
2021/05/15 04:22:10;;;;;;;1.42;0.38;;;;;;;9.45;76.01;99310.41;5073302;28;20104;-48
2021/05/15 04:24:38;;;;;;;1.67;0.30;;;;;;;9.41;76.13;99315.06;5108463;28;20044;-50
2021/05/15 04:27:05;;;;;;;1.60;0.30;;;;;;;9.38;76.27;99313.06;5085345;28;20397;-48
2021/05/15 04:29:31;;;;;;;2.63;0.40;;;;;;;9.31;76.50;99316.53;5096228;28;20047;-47
2021/05/15 04:31:57;;;;;;;1.30;1.20;;;;;;;9.23;76.87;99302.97;5092353;28;20036;-47
2021/05/15 04:34:24;;;;;;;4.70;0.60;;;;;;;9.25;76.80;99309.72;5092385;28;20063;-47
2021/05/15 04:36:52;;;;;;;1.50;0.40;;;;;;;9.28;76.79;99302.66;5091813;28;20040;-49
2021/05/15 04:39:18;;;;;;;3.75;0.65;;;;;;;9.29;76.75;99309.78;5092941;28;20051;-49
2021/05/15 04:41:43;;;;;;;0.98;0.50;;;;;;;9.29;76.79;99305.06;5101663;28;20043;-50
2021/05/15 04:44:10;;;;;;;3.50;0.50;;;;;;;9.29;76.56;99301.50;5107248;28;20096;-47
2021/05/15 04:46:36;;;;;;;3.45;0.60;;;;;;;9.31;76.70;99307.44;5111353;28;20047;-52
2021/05/15 04:49:05;;;;;;;0.43;0.30;;;;;;;9.30;76.83;99300.31;5103453;28;20477;-50
2021/05/15 04:51:31;;;;;;;3.70;0.57;;;;;;;9.34;76.70;99292.88;5109702;28;20077;-47
2021/05/15 04:53:57;;;;;;;1.98;0.50;;;;;;;9.31;76.63;99301.91;5109661;28;20110;-50
2021/05/15 04:56:23;;;;;;;3.33;0.57;;;;;;;9.30;76.47;99300.31;5096506;28;20111;-47
2021/05/15 04:58:48;;;;;;;3.85;0.63;;;;;;;9.28;76.65;99292.41;5091544;28;20093;-47
2021/05/15 05:01:14;;;;;;;2.30;0.47;;;;;;;9.28;76.54;99286.88;5094416;28;20040;-48
2021/05/15 05:03:40;;;;;;;2.28;0.80;;;;;;;9.27;76.58;99288.03;5094374;28;20031;-46
2021/05/15 05:06:05;;;;;;;4.65;0.50;;;;;;;9.29;76.49;99282.97;5110231;28;20066;-48
2021/05/15 05:08:34;;;;;;;1.17;0.60;;;;;;;9.24;76.63;99288.00;5110729;28;20055;-48
2021/05/15 05:10:59;;;;;;;1.50;0.65;;;;;;;9.19;76.72;99287.13;5101350;28;20032;-48
2021/05/15 05:13:25;;;;;;;2.90;1.35;;;;;;;9.18;76.90;99288.31;5096375;28;20122;-49
2021/05/15 05:15:50;;;;;;;3.00;0.55;;;;;;;9.22;76.92;99282.03;5115246;28;20044;-48
2021/05/15 05:18:16;;;;;;;1.83;0.40;;;;;;;9.25;76.81;99284.84;5101319;28;20040;-49
2021/05/15 05:20:42;;;;;;;0.77;0.50;;;;;;;9.21;76.72;99280.47;5100130;28;20031;-47
2021/05/15 05:23:10;;;;;;;0.68;0.30;;;;;;;9.18;76.79;99270.94;5111807;28;20067;-49
2021/05/15 05:25:35;;;;;;;2.13;0.68;;;;;;;9.21;76.92;99277.69;5112924;28;20059;-47
2021/05/15 05:28:01;;;;;;;5.93;0.73;;;;;;;9.24;76.72;99269.44;5103931;28;20467;-48
2021/05/15 05:30:27;;;;;;;2.47;0.60;;;;;;;9.26;76.33;99272.66;5092961;28;20028;-47
2021/05/15 05:32:52;;;;;;;1.23;0.65;;;;;;;9.26;76.97;99260.81;5094318;28;20047;-48
2021/05/15 05:35:19;;;;;;;1.13;0.45;;;;;;;9.29;77.03;99254.53;5090896;28;20055;-49
2021/05/15 05:37:45;;;;;;;3.78;0.40;;;;;;;9.34;76.92;99262.50;5092092;28;20028;-48
2021/05/15 05:40:12;;;;;;;3.30;0.88;;;;;;;9.36;77.02;99252.66;5113200;28;20031;-49
2021/05/15 05:42:39;;;;;;;2.65;0.40;;;;;;;9.38;77.13;99258.63;5073994;28;20059;-52
2021/05/15 05:45:06;;;;;;;2.33;0.65;;;;;;;9.39;77.11;99256.66;5112115;28;20092;-49
2021/05/15 05:47:31;;;;;;;5.88;0.88;;;;;;;9.45;77.07;99252.41;5095590;28;20043;-48
2021/05/15 05:49:57;;;;;;;4.10;0.63;;;;;;;9.52;76.81;99260.78;5104719;28;20442;-47
2021/05/15 05:52:23;;;;;;;2.63;0.80;;;;;;;9.54;77.01;99255.66;5082174;28;20040;-49
2021/05/15 05:54:49;;;;;;;1.02;0.60;;;;;;;9.53;77.28;99252.09;5103625;28;20032;-46
2021/05/15 05:57:14;;;;;;;1.60;0.60;;;;;;;9.52;77.70;99252.50;5096584;28;20028;-49
2021/05/15 05:59:43;;;;;;;2.22;0.40;;;;;;;9.53;77.61;99245.81;5077711;28;20032;-51
2021/05/15 06:02:09;;;;;;;2.42;0.73;;;;;;;9.60;77.67;99254.19;5096664;28;20431;-49
2021/05/15 06:04:35;;;;;;;3.58;0.70;;;;;;;9.63;77.98;99247.91;5099463;28;20068;-50
2021/05/15 06:07:06;;;;;;;3.67;0.63;;;;;;;9.63;78.07;99259.75;5076590;28;20512;-51
2021/05/15 06:09:31;;;;;;;3.60;0.80;;;;;;;9.62;78.33;99251.84;5086558;28;20032;-51
2021/05/15 06:11:57;;;;;;;5.03;0.82;;;;;;;9.62;78.45;99246.31;5095211;28;20032;-51
2021/05/15 06:14:22;;;;;;;1.58;0.73;;;;;;;9.65;78.63;99251.09;5099811;28;20035;-50
2021/05/15 06:16:48;;;;;;;2.30;0.63;;;;;;;9.69;78.66;99251.91;5104837;28;20393;-48
2021/05/15 06:19:17;;;;;;;4.38;0.77;;;;;;;9.72;78.61;99242.88;5101754;28;20035;-48
2021/05/15 06:21:42;;;;;;;3.33;0.75;;;;;;;9.68;78.67;99248.38;5102320;28;20032;-51
2021/05/15 06:24:08;;;;;;;9.15;1.02;;;;;;;9.63;78.90;99245.94;5095658;28;20067;-49
2021/05/15 06:26:34;;;;;;;1.70;0.60;;;;;;;9.66;78.87;99255.44;5085525;28;20036;-49
2021/05/15 06:28:59;;;;;;;2.00;0.50;;;;;;;9.69;79.10;99251.91;5083470;28;20024;-48
2021/05/15 06:31:25;;;;;;;3.25;1.55;;;;;;;9.70;79.15;99248.00;5086647;28;20557;-48
2021/05/15 06:33:51;;;;;;;1.17;1.00;;;;;;;9.73;79.14;99241.72;5100786;28;20040;-49
2021/05/15 06:36:17;;;;;;;5.80;1.13;;;;;;;9.76;79.08;99239.00;5093822;28;20097;-49
2021/05/15 06:38:42;;;;;;;1.48;0.50;;;;;;;9.78;79.12;99231.13;5075992;28;20025;-49
2021/05/15 06:41:08;;;;;;;1.80;0.50;;;;;;;9.82;79.10;99233.94;5104061;28;20040;-47
2021/05/15 06:43:34;;;;;;;4.22;1.10;;;;;;;9.84;79.23;99231.59;5105182;28;20468;-47
2021/05/15 06:46:01;;;;;;;3.00;0.77;;;;;;;9.86;79.41;99228.44;5114396;28;20044;-50
2021/05/15 06:48:26;;;;;;;21.67;2.50;;;;;;;9.82;79.27;99224.84;5110277;28;20065;-47
2021/05/15 06:50:52;;;;;;;2.65;0.60;;;;;;;9.79;79.27;99223.63;5106509;28;20078;-48
2021/05/15 06:53:18;;;;;;;1.95;1.00;;;;;;;9.87;79.21;99213.47;5094554;28;20036;-50
2021/05/15 06:55:43;;;;;;;3.83;1.35;;;;;;;9.85;79.58;99208.28;5108068;28;20036;-51
2021/05/15 06:58:09;;;;;;;2.75;0.70;;;;;;;9.84;79.64;99212.25;5093397;28;20271;-48
2021/05/15 07:00:34;;;;;;;2.67;1.25;;;;;;;9.84;79.58;99214.22;5094051;28;20104;-48
2021/05/15 07:03:00;;;;;;;2.08;1.08;;;;;;;9.82;79.79;99212.59;5101131;28;20566;-48
2021/05/15 07:05:27;;;;;;;4.00;1.38;;;;;;;9.82;79.98;99211.03;5100478;28;20032;-47
2021/05/15 07:07:53;;;;;;;5.68;1.10;;;;;;;9.86;79.87;99211.84;5093276;28;20118;-53
2021/05/15 07:10:19;;;;;;;8.40;1.27;;;;;;;9.87;79.80;99214.25;5107377;28;20085;-48
2021/05/15 07:12:45;;;;;;;2.80;1.15;;;;;;;9.79;80.07;99209.81;5107511;28;20542;-50
2021/05/15 07:15:11;;;;;;;2.20;1.35;;;;;;;9.81;80.07;99207.47;5094407;28;20115;-49
2021/05/15 07:17:36;;;;;;;3.70;0.98;;;;;;;9.80;80.30;99209.44;5083800;28;20478;-51
2021/05/15 07:20:04;;;;;;;7.03;1.30;;;;;;;9.77;80.54;99217.66;5091145;28;20035;-49
2021/05/15 07:22:29;;;;;;;3.65;1.42;;;;;;;9.75;80.53;99214.50;5089612;28;20122;-52
2021/05/15 07:24:56;;;;;;;3.38;1.10;;;;;;;9.73;80.24;99225.13;5112919;28;20127;-51
2021/05/15 07:27:23;;;;;;;3.40;1.35;;;;;;;9.69;80.37;99208.50;5107100;28;20032;-48
2021/05/15 07:29:52;;;;;;;5.15;1.73;;;;;;;9.72;80.32;99202.22;5104025;28;20040;-52
2021/05/15 07:32:18;;;;;;;5.50;1.63;;;;;;;9.76;80.29;99213.34;5092547;28;20465;-47
2021/05/15 07:34:44;;;;;;;5.30;1.50;;;;;;;9.75;80.47;99204.25;5089317;28;20090;-50
2021/05/15 07:37:09;;;;;;;5.57;1.40;;;;;;;9.76;80.37;99202.28;5071716;28;20095;-49
2021/05/15 07:39:36;;;;;;;2.70;1.67;;;;;;;9.71;80.69;99208.13;5072331;28;20032;-49
2021/05/15 07:42:03;;;;;;;5.43;1.70;;;;;;;9.70;80.66;99204.56;5071790;28;20040;-52
2021/05/15 07:44:29;;;;;;;8.05;1.70;;;;;;;9.69;80.82;99202.16;5089208;28;20078;-49
2021/05/15 07:46:54;;;;;;;3.60;1.33;;;;;;;9.72;81.02;99204.19;5096783;28;20454;-48
2021/05/15 07:49:20;;;;;;;3.53;1.05;;;;;;;9.72;80.80;99202.22;5093396;28;20024;-51
2021/05/15 07:51:46;;;;;;;4.72;1.85;;;;;;;9.73;80.73;99203.03;5092990;28;20023;-53
2021/05/15 07:54:11;;;;;;;4.75;1.65;;;;;;;9.79;80.83;99201.53;5094404;28;20096;-52
2021/05/15 07:56:37;;;;;;;3.03;1.35;;;;;;;9.84;80.87;99203.94;5079295;28;20071;-51
2021/05/15 07:59:03;;;;;;;3.72;0.82;;;;;;;9.86;80.59;99203.56;5102718;28;20040;-47
2021/05/15 08:01:29;;;;;;;3.33;1.15;;;;;;;9.85;80.73;99202.75;5090198;28;20711;-53
2021/05/15 08:03:54;;;;;;;6.25;1.50;;;;;;;9.87;80.69;99203.19;5091319;28;20040;-52
2021/05/15 08:06:23;;;;;;;4.85;1.38;;;;;;;9.91;80.68;99208.75;5091086;28;20473;-50
2021/05/15 08:08:52;;;;;;;3.15;1.40;;;;;;;9.91;80.52;99212.31;5090321;28;20044;-51
2021/05/15 08:11:18;;;;;;;7.55;1.20;;;;;;;9.95;80.75;99213.16;5090428;28;20055;-52
2021/05/15 08:13:46;;;;;;;3.03;1.30;;;;;;;9.93;80.88;99201.66;5086557;28;20109;-51
2021/05/15 08:16:13;;;;;;;3.90;1.27;;;;;;;9.98;80.97;99209.63;5089821;28;20713;-50
2021/05/15 08:18:40;;;;;;;2.15;1.30;;;;;;;10.00;81.22;99210.06;5091330;28;20056;-51
2021/05/15 08:21:06;;;;;;;4.22;0.80;;;;;;;10.04;81.53;99210.06;5086743;28;20039;-51
2021/05/15 08:23:35;;;;;;;2.35;1.13;;;;;;;10.13;81.29;99205.09;5090951;28;20038;-52
2021/05/15 08:26:05;;;;;;;2.78;1.20;;;;;;;10.15;81.50;99206.28;5089766;28;20036;-54
2021/05/15 08:28:34;;;;;;;;;;;;;;;10.16;81.82;99210.66;5091345;28;20036;-53
2021/05/15 08:31:00;;;;;;;1.50;0.80;;;;;;;10.20;81.00;99205.94;5073839;28;19916;-54
2021/05/15 08:33:25;;;;;;;8.02;2.42;;;;;;;10.15;81.26;99211.81;5096582;28;20032;-50
2021/05/15 08:35:51;;;;;;;6.13;2.10;;;;;;;10.14;81.20;99207.44;5092858;28;20036;-56
2021/05/15 08:38:17;;;;;;;8.35;5.63;;;;;;;10.11;81.36;99207.41;5091126;28;20036;-50
2021/05/15 08:40:42;;;;;;;5.40;2.22;;;;;;;10.16;81.44;99204.31;5102359;28;20063;-53
2021/05/15 08:43:08;;;;;;;15.90;10.32;;;;;;;10.19;81.29;99212.63;5084503;28;20036;-50
2021/05/15 08:45:35;;;;;;;4.20;1.70;;;;;;;10.19;81.28;99209.88;5104959;28;20038;-54
2021/05/15 08:48:02;;;;;;;4.38;1.25;;;;;;;10.17;81.27;99212.22;5105575;28;20426;-52
2021/05/15 08:50:30;;;;;;;6.85;1.33;;;;;;;10.13;81.10;99197.59;5091251;28;20050;-53
2021/05/15 08:53:02;;;;;;;5.07;1.80;;;;;;;10.08;81.39;99206.19;5090965;28;20574;-52
2021/05/15 08:55:32;;;;;;;5.78;1.35;;;;;;;10.10;81.64;99195.53;5088905;28;20045;-49
2021/05/15 08:57:59;;;;;;;9.13;1.73;;;;;;;10.12;81.26;99197.91;5065224;28;20054;-51
2021/05/15 09:00:31;;;;;;;2.03;1.15;;;;;;;10.10;81.27;99200.28;5068823;28;20032;-52
2021/05/15 09:03:01;;;;;;;6.25;1.70;;;;;;;10.12;81.37;99195.16;5091033;28;20035;-51
2021/05/15 09:05:30;;;;;;;5.40;1.67;;;;;;;10.14;81.59;99199.16;5088515;28;20082;-51
2021/05/15 09:08:00;;;;;;;14.05;2.28;;;;;;;10.10;81.74;99190.00;5074233;28;20413;-52
2021/05/15 09:10:29;;;;;;;2.67;1.00;;;;;;;10.05;82.10;99187.59;5080266;28;20075;-54
2021/05/15 09:13:17;;;;;;;3.30;1.02;;;;;;;10.03;82.50;99189.16;5077855;28;20392;-53
2021/05/15 09:15:50;;;;;;;4.45;1.45;;;;;;;10.00;82.13;99182.41;5073930;28;20090;-55
2021/05/15 09:18:21;;;;;;;4.18;1.00;;;;;;;10.03;82.07;99184.41;5064458;28;20086;-53
2021/05/15 09:20:51;;;;;;;6.03;1.30;;;;;;;10.04;82.34;99183.22;5081987;28;20049;-53
2021/05/15 09:23:19;;;;;;;3.42;1.20;;;;;;;10.07;82.23;99190.78;5090504;28;20744;-53
2021/05/15 09:26:09;;;;;;;6.82;1.92;;;;;;;10.06;82.86;99186.41;5082729;28;20144;-53
2021/05/15 09:29:04;;;;;;;3.67;1.20;;;;;;;10.09;82.65;99179.31;5084788;28;20169;-53
2021/05/15 09:31:45;;;;;;;3.80;1.08;;;;;;;10.13;82.31;99175.47;5076840;28;20040;-55
2021/05/15 09:34:12;;;;;;;5.15;1.00;;;;;;;10.15;82.14;99170.34;5070652;28;20047;-53
2021/05/15 09:36:43;;;;;;;5.78;1.00;;;;;;;10.20;82.09;99178.28;5089779;28;20040;-54
2021/05/15 09:39:21;;;;;;;1.60;0.98;;;;;;;10.21;82.53;99168.81;5092522;28;20087;-49
2021/05/15 09:41:58;;;;;;;6.32;1.10;;;;;;;10.19;82.18;99162.84;5090562;28;20713;-50
2021/05/15 09:44:27;;;;;;;3.20;1.05;;;;;;;10.22;82.00;99162.09;5094488;28;20040;-50
2021/05/15 09:46:55;;;;;;;3.33;1.10;;;;;;;10.23;81.87;99160.13;5085588;28;20052;-50
2021/05/15 09:49:28;;;;;;;2.92;1.10;;;;;;;10.23;82.11;99165.66;5088449;28;20051;-50
2021/05/15 09:52:04;;;;;;;9.07;2.00;;;;;;;10.19;82.27;99170.38;5091255;28;20048;-50
2021/05/15 09:54:32;;;;;;;6.10;1.10;;;;;;;10.22;82.03;99164.88;5090072;28;20071;-48
2021/05/15 09:57:02;;;;;;;9.30;1.13;;;;;;;10.27;82.13;99156.22;5094527;28;20051;-50
2021/05/15 09:59:36;;;;;;;3.88;1.75;;;;;;;10.32;81.99;99161.44;5096459;28;20430;-53
2021/05/15 10:02:05;;;;;;;1.15;0.82;;;;;;;10.35;82.15;99160.63;5103347;28;20043;-49
2021/05/15 10:04:40;;;;;;;2.00;1.05;;;;;;;10.38;82.10;99162.66;5097080;28;20040;-48
2021/05/15 10:07:25;;;;;;;3.60;1.20;;;;;;;10.42;81.99;99146.09;5079685;28;20117;-50
2021/05/15 10:09:52;;;;;;;6.50;1.27;;;;;;;10.45;81.92;99150.06;5095220;28;20052;-47
2021/05/15 10:12:19;;;;;;;7.22;1.20;;;;;;;10.48;81.91;99157.59;5102580;28;20139;-51
2021/05/15 10:14:46;;;;;;;5.30;1.70;;;;;;;10.53;81.68;99148.94;5102337;28;20176;-47
2021/05/15 10:17:13;;;;;;;5.03;2.13;;;;;;;10.54;81.92;99145.00;5093036;28;20043;-50
2021/05/15 10:19:40;;;;;;;5.30;1.45;;;;;;;10.53;81.84;99160.00;5101449;28;20067;-50
2021/05/15 10:22:07;;;;;;;7.00;1.65;;;;;;;10.46;81.95;99157.97;5109178;28;20082;-47
2021/05/15 10:24:35;;;;;;;5.80;2.10;;;;;;;10.48;81.68;99154.81;5092100;28;20483;-50
2021/05/15 10:27:12;;;;;;;5.68;1.95;;;;;;;10.49;81.94;99156.41;5103068;28;20067;-49
2021/05/15 10:29:43;;;;;;;5.90;1.63;;;;;;;10.53;81.57;99151.72;5108041;28;20035;-47
2021/05/15 10:32:15;;;;;;;8.52;1.42;;;;;;;10.46;81.92;99157.19;5106758;28;20126;-48
2021/05/15 10:34:47;;;;;;;6.88;1.27;;;;;;;10.38;81.99;99162.66;5084746;28;20040;-45
2021/05/15 10:37:18;;;;;;;3.00;1.30;;;;;;;10.37;82.13;99160.28;5109632;28;20047;-48
2021/05/15 10:39:48;;;;;;;2.30;1.45;;;;;;;10.45;81.85;99161.94;5089633;28;20407;-46
2021/05/15 10:42:33;;;;;;;7.38;1.50;;;;;;;10.46;81.82;99152.44;5066530;28;20444;-47
2021/05/15 10:45:01;;;;;;;3.75;1.20;;;;;;;10.54;81.71;99148.53;5093584;28;20094;-48
2021/05/15 10:47:39;;;;;;;4.38;2.20;;;;;;;10.67;81.61;99157.34;5095650;28;20085;-47
2021/05/15 10:50:22;;;;;;;7.80;1.85;;;;;;;10.76;81.63;99149.50;5097382;28;20580;-45
2021/05/15 10:52:51;;;;;;;8.82;1.20;;;;;;;10.75;81.41;99150.69;5090816;28;20116;-50
2021/05/15 10:55:34;;;;;;;7.35;1.52;;;;;;;10.75;81.68;99164.53;5101482;28;20048;-53
2021/05/15 10:58:13;;;;;;;8.70;1.88;;;;;;;10.81;81.72;99160.22;5093806;28;20533;-47
2021/05/15 11:00:42;;;;;;;4.85;1.27;;;;;;;10.92;81.38;99150.00;5090694;28;20139;-47
2021/05/15 11:03:08;;;;;;;2.88;1.60;;;;;;;11.07;81.21;99159.97;5080862;28;20104;-46
2021/05/15 11:05:46;;;;;;;10.05;3.13;;;;;;;11.24;81.23;99150.97;5100516;28;20130;-49
2021/05/15 11:08:23;;;;;;;6.75;2.38;;;;;;;11.36;80.96;99147.88;5095648;28;20075;-49
2021/05/15 11:10:53;;;;;;;6.68;1.77;;;;;;;11.45;80.76;99148.31;5085298;28;20046;-46
2021/05/15 11:13:21;;;;;;;3.47;2.45;;;;;;;11.47;80.73;99145.94;5078386;28;20135;-50
2021/05/15 11:15:49;;;;;;;6.38;1.30;;;;;;;11.47;80.56;99148.72;5075472;28;20048;-54
2021/05/15 11:18:28;;;;;;;6.65;1.35;;;;;;;11.44;80.22;99140.38;5085721;28;20688;-47
2021/05/15 11:21:03;;;;;;;11.00;2.50;;;;;;;11.51;80.51;99144.00;5096892;28;20043;-49
2021/05/15 11:23:30;;;;;;;5.07;1.02;;;;;;;11.65;80.22;99139.69;5098499;28;20052;-50
2021/05/15 11:26:01;;;;;;;4.75;1.65;;;;;;;11.72;80.07;99140.53;5097612;28;20113;-48
2021/05/15 11:28:30;;;;;;;7.18;1.30;;;;;;;11.81;79.90;99137.38;5095468;28;20657;-50
2021/05/15 11:30:57;;;;;;;4.10;1.50;;;;;;;11.93;79.79;99132.25;5105079;28;20075;-51
2021/05/15 11:33:28;;;;;;;6.97;1.60;;;;;;;12.01;79.65;99133.84;5096140;28;20412;-51
2021/05/15 11:35:56;;;;;;;6.88;1.27;;;;;;;12.02;79.38;99132.66;5090644;28;20048;-53
2021/05/15 11:38:25;;;;;;;4.78;1.05;;;;;;;12.10;79.32;99128.69;5110606;28;20090;-50